createdAt,value
2018-07-25T00:04:12.734Z,13.90
2018-07-25T00:09:14.914Z,13.13
2018-07-25T00:14:17.077Z,15.07
2018-07-25T00:19:19.237Z,12.37
2018-07-25T00:24:21.370Z,12.53
2018-07-25T00:29:23.497Z,11.70
2018-07-25T00:34:25.638Z,12.53
2018-07-25T00:39:27.789Z,11.77
2018-07-25T00:44:29.905Z,13.63
2018-07-25T00:49:32.024Z,13.33
2018-07-25T00:54:34.153Z,13.40
2018-07-25T00:59:36.278Z,18.90
2018-07-25T01:04:38.400Z,11.07
2018-07-25T01:09:40.578Z,14.13
2018-07-25T01:14:42.753Z,13.43
2018-07-25T01:19:44.921Z,13.57
2018-07-25T01:24:47.049Z,14.87
2018-07-25T01:29:49.174Z,15.10
2018-07-25T01:34:51.709Z,12.80
2018-07-25T01:39:53.859Z,12.97
2018-07-25T01:44:56.002Z,15.57
2018-07-25T01:49:58.156Z,11.57
2018-07-25T01:55:00.309Z,12.27
2018-07-25T02:00:02.474Z,12.47
2018-07-25T02:05:05.216Z,11.97
2018-07-25T02:10:07.349Z,13.50
2018-07-25T02:15:09.478Z,13.57
2018-07-25T02:20:11.629Z,14.70
2018-07-25T02:25:13.786Z,11.90
2018-07-25T02:30:15.948Z,12.30
2018-07-25T02:35:18.075Z,12.37
2018-07-25T02:40:20.240Z,18.10
2018-07-25T02:45:22.393Z,15.30
2018-07-25T02:50:24.553Z,16.30
2018-07-25T02:55:26.670Z,18.53
2018-07-25T03:00:28.794Z,20.60
2018-07-25T03:05:30.938Z,16.40
2018-07-25T03:10:33.057Z,18.70
2018-07-25T03:15:36.027Z,19.70
2018-07-25T03:20:38.174Z,21.67
2018-07-25T03:25:40.330Z,20.60
2018-07-25T03:30:42.496Z,22.07
2018-07-25T03:35:44.670Z,17.60
2018-07-25T03:40:47.369Z,20.83
2018-07-25T03:45:49.530Z,20.73
2018-07-25T03:50:51.681Z,17.50
2018-07-25T03:55:53.866Z,18.23
2018-07-25T04:00:56.014Z,18.73
2018-07-25T04:05:58.169Z,18.23
2018-07-25T04:11:00.330Z,18.60
2018-07-25T04:16:02.489Z,18.20
2018-07-25T04:21:04.642Z,17.93
2018-07-25T04:26:06.853Z,16.40
2018-07-25T04:31:08.997Z,18.37
2018-07-25T04:36:11.132Z,20.20
2018-07-25T04:41:13.321Z,25.80
2018-07-25T04:46:15.540Z,18.23
2018-07-25T04:51:17.616Z,25.03
2018-07-25T04:56:19.757Z,15.50
2018-07-25T05:01:21.907Z,18.60
2018-07-25T05:06:24.043Z,18.10
2018-07-25T05:11:26.193Z,16.87
2018-07-25T05:16:28.356Z,14.37
2018-07-25T05:21:30.527Z,16.97
2018-07-25T05:26:32.674Z,16.60
2018-07-25T05:31:34.847Z,14.77
2018-07-25T05:36:37.029Z,16.77
2018-07-25T05:41:39.805Z,17.23
2018-07-25T05:46:41.967Z,17.43
2018-07-25T05:51:44.154Z,15.50
2018-07-25T05:56:46.314Z,13.87
2018-07-25T06:01:48.478Z,15.53
2018-07-25T06:06:50.673Z,14.57
2018-07-25T06:11:52.833Z,12.33
2018-07-25T06:16:55.011Z,14.80
2018-07-25T06:21:57.197Z,16.07
2018-07-25T06:26:59.357Z,19.20
2018-07-25T06:32:01.521Z,19.27
2018-07-25T06:37:03.707Z,15.60
2018-07-25T06:42:05.909Z,17.50
2018-07-25T06:47:08.053Z,17.80
2018-07-25T06:52:10.217Z,18.47
2018-07-25T06:57:12.380Z,18.73
2018-07-25T07:02:14.571Z,17.70
2018-07-25T07:07:16.741Z,18.40
2018-07-25T07:12:18.901Z,15.87
2018-07-25T07:17:21.103Z,23.57
2018-07-25T07:22:23.237Z,17.27
2018-07-25T07:27:25.390Z,17.63
2018-07-25T07:32:27.553Z,15.80
2018-07-25T07:37:29.785Z,21.43
2018-07-25T07:42:31.888Z,17.43
2018-07-25T07:47:34.079Z,25.77
2018-07-25T07:52:36.266Z,16.20
2018-07-25T07:57:38.440Z,13.50
2018-07-25T08:02:40.621Z,14.30
2018-07-25T08:07:42.799Z,13.70
2018-07-25T08:12:44.989Z,14.20
2018-07-25T08:17:47.257Z,22.93
2018-07-25T08:22:49.334Z,13.07
2018-07-25T08:27:51.483Z,15.07
2018-07-25T08:32:53.666Z,12.20
2018-07-25T08:37:55.843Z,19.00
2018-07-25T08:42:57.977Z,12.17
2018-07-25T08:48:00.136Z,17.73
2018-07-25T08:53:02.290Z,14.53
2018-07-25T08:58:04.468Z,11.33
2018-07-25T09:03:06.638Z,19.33
2018-07-25T09:08:09.161Z,12.60
2018-07-25T09:13:11.395Z,12.70
2018-07-25T09:18:13.473Z,12.27
2018-07-25T09:23:15.610Z,17.30
2018-07-25T09:28:17.741Z,21.73
2018-07-25T09:33:19.942Z,13.03
2018-07-25T09:38:22.126Z,14.10
2018-07-25T09:43:24.357Z,14.20
2018-07-25T09:48:26.561Z,14.33
2018-07-25T09:53:28.765Z,11.07
2018-07-25T09:58:30.897Z,12.33
2018-07-25T10:03:33.049Z,10.87
2018-07-25T10:08:35.191Z,10.10
2018-07-25T10:13:37.357Z,9.10
2018-07-25T10:18:39.506Z,9.33
2018-07-25T10:23:41.794Z,8.13
2018-07-25T10:28:43.944Z,9.17
2018-07-25T10:33:46.087Z,8.77
2018-07-25T10:38:48.262Z,9.37
2018-07-25T10:43:50.427Z,10.37
2018-07-25T10:48:52.684Z,10.20
2018-07-25T10:53:54.835Z,12.73
2018-07-25T10:58:57.011Z,12.43
2018-07-25T11:03:59.182Z,10.13
2018-07-25T11:09:01.378Z,17.03
2018-07-25T11:14:03.555Z,14.10
2018-07-25T11:19:05.715Z,12.80
2018-07-25T11:24:07.878Z,11.30
2018-07-25T11:29:10.016Z,11.40
2018-07-25T11:34:12.197Z,10.17
2018-07-25T11:39:14.350Z,10.53
2018-07-25T11:44:16.487Z,10.23
2018-07-25T11:49:18.675Z,9.93
2018-07-25T11:54:20.838Z,8.07
2018-07-25T11:59:22.977Z,9.07
2018-07-25T12:04:25.134Z,7.83
2018-07-25T12:09:27.288Z,9.03
2018-07-25T12:14:29.477Z,7.47
2018-07-25T12:19:31.637Z,11.60
2018-07-25T12:24:33.826Z,7.50
2018-07-25T12:29:35.993Z,7.40
2018-07-25T12:34:38.151Z,7.43
2018-07-25T12:39:40.333Z,10.27
2018-07-25T12:44:42.546Z,7.33
2018-07-25T12:49:44.709Z,8.10
2018-07-25T12:54:46.869Z,9.03
2018-07-25T12:59:49.038Z,8.23
2018-07-25T13:04:51.213Z,8.57
2018-07-25T13:09:53.394Z,9.03
2018-07-25T13:14:55.594Z,8.00
2018-07-25T13:19:57.738Z,13.10
2018-07-25T13:24:59.913Z,13.63
2018-07-25T13:30:02.114Z,10.07
2018-07-25T13:35:04.341Z,11.67
2018-07-25T13:40:06.614Z,9.13
2018-07-25T13:45:08.798Z,10.07
2018-07-25T13:50:10.999Z,7.00
2018-07-25T13:55:13.165Z,6.90
2018-07-25T14:00:15.366Z,11.00
2018-07-25T14:05:17.573Z,7.83
2018-07-25T14:10:19.731Z,6.40
2018-07-25T14:15:22.385Z,9.50
2018-07-25T14:20:24.548Z,7.20
2018-07-25T14:25:26.734Z,5.73
2018-07-25T14:30:29.036Z,7.10
2018-07-25T14:35:31.051Z,5.60
2018-07-25T14:40:33.227Z,6.63
2018-07-25T14:45:35.343Z,9.53
2018-07-25T14:50:37.473Z,7.53
2018-07-25T14:55:39.640Z,6.93
2018-07-25T15:00:41.789Z,6.73
2018-07-25T15:05:43.933Z,8.27
2018-07-25T15:10:46.094Z,7.73
2018-07-25T15:15:48.269Z,8.53
2018-07-25T15:20:50.405Z,7.73
2018-07-25T15:25:52.573Z,6.40
2018-07-25T15:30:54.749Z,5.77
2018-07-25T15:35:56.925Z,6.07
2018-07-25T15:40:59.093Z,5.47
2018-07-25T15:46:01.264Z,5.90
2018-07-25T15:51:03.450Z,8.60
2018-07-25T15:56:05.711Z,6.07
2018-07-25T16:01:07.982Z,9.73
2018-07-25T16:06:10.139Z,5.73
2018-07-25T16:11:12.593Z,5.40
2018-07-25T16:16:14.805Z,5.93
2018-07-25T16:21:17.367Z,9.73
2018-07-25T16:26:19.553Z,6.67
2018-07-25T16:31:21.758Z,5.80
2018-07-25T16:36:23.942Z,6.40
2018-07-25T16:41:26.142Z,5.60
2018-07-25T16:46:28.338Z,12.67
2018-07-25T16:51:30.513Z,6.33
2018-07-25T16:56:32.751Z,3.80
2018-07-25T17:01:34.826Z,10.33
2018-07-25T17:06:36.989Z,2.87
2018-07-25T17:11:39.270Z,2.57
2018-07-25T17:16:41.448Z,2.63
2018-07-25T17:21:43.613Z,2.93
2018-07-25T17:26:45.762Z,2.70
2018-07-25T17:31:47.930Z,2.90
2018-07-25T17:36:50.073Z,3.07
2018-07-25T17:41:52.217Z,3.93
2018-07-25T17:46:54.364Z,3.70
2018-07-25T17:51:56.701Z,5.43
2018-07-25T17:56:58.928Z,3.93
2018-07-25T18:02:01.036Z,4.97
2018-07-25T18:07:03.197Z,3.57
2018-07-25T18:12:05.357Z,5.00
2018-07-25T18:17:07.555Z,5.87
2018-07-25T18:22:09.682Z,5.13
2018-07-25T18:27:11.805Z,5.67
2018-07-25T18:32:13.982Z,7.00
2018-07-25T18:37:16.128Z,11.10
2018-07-25T18:42:18.313Z,9.00
2018-07-25T18:47:20.495Z,6.50
2018-07-25T18:52:22.677Z,4.73
2018-07-25T18:57:24.853Z,4.53
2018-07-25T19:02:27.006Z,7.10
2018-07-25T19:07:29.262Z,4.40
2018-07-25T19:12:31.326Z,9.80
2018-07-25T19:17:33.473Z,4.93
2018-07-25T19:22:35.669Z,9.93
2018-07-25T19:27:37.830Z,4.20
2018-07-25T19:32:39.988Z,5.87
2018-07-25T19:37:42.281Z,5.37
2018-07-25T19:42:44.442Z,4.37
2018-07-25T19:47:46.597Z,4.10
2018-07-25T19:52:48.764Z,8.93
2018-07-25T19:57:50.941Z,4.13
2018-07-25T20:02:53.223Z,4.20
2018-07-25T20:07:55.382Z,7.40
2018-07-25T20:12:57.602Z,5.90
2018-07-25T20:17:59.815Z,4.57
2018-07-25T20:23:01.940Z,8.40
2018-07-25T20:28:04.330Z,7.63
2018-07-25T20:33:06.461Z,5.77
2018-07-25T20:38:08.643Z,5.37
2018-07-25T20:43:10.783Z,3.23
2018-07-25T20:48:12.918Z,6.20
2018-07-25T20:53:15.053Z,3.50
2018-07-25T20:58:17.216Z,3.40
2018-07-25T21:03:19.367Z,4.63
2018-07-25T21:08:22.296Z,3.70
2018-07-25T21:13:24.442Z,7.20
2018-07-25T21:18:26.582Z,3.50
2018-07-25T21:23:28.794Z,5.40
2018-07-25T21:28:30.913Z,3.60
2018-07-25T21:33:33.060Z,4.20
2018-07-25T21:38:35.193Z,6.20
2018-07-25T21:43:37.337Z,4.10
2018-07-25T21:48:39.469Z,4.73
2018-07-25T21:53:41.617Z,5.90
2018-07-25T21:58:43.744Z,4.00
2018-07-25T22:03:46.088Z,9.20
2018-07-25T22:08:48.248Z,7.00
2018-07-25T22:13:54.947Z,4.97
2018-07-25T22:18:57.077Z,9.07
2018-07-25T22:23:59.233Z,5.53
2018-07-25T22:29:01.414Z,6.67
2018-07-25T22:34:03.564Z,5.60
2018-07-25T22:39:07.461Z,6.90
2018-07-25T22:44:10.457Z,4.53
2018-07-25T22:49:12.597Z,6.00
2018-07-25T22:54:14.741Z,4.83
2018-07-25T22:59:16.882Z,4.40
2018-07-25T23:04:19.086Z,9.30
2018-07-25T23:09:21.228Z,4.80
2018-07-25T23:14:23.396Z,6.50
2018-07-25T23:19:25.721Z,5.93
2018-07-25T23:24:27.875Z,7.47
2018-07-25T23:29:30.073Z,5.20
2018-07-25T23:34:32.168Z,4.70
2018-07-25T23:39:34.297Z,5.70
2018-07-25T23:44:36.429Z,5.60
2018-07-25T23:49:38.562Z,5.87
2018-07-25T23:54:40.705Z,6.57
2018-07-25T23:59:42.834Z,6.10
